sensor_id;sensor_type;location;lat;lon;timestamp;temperature;humidity
674;DHT22;319;48.764;9.174;2023-02-26T00:00:15;3.80;96.40
674;DHT22;319;48.764;9.174;2023-02-26T00:02:46;3.90;96.60
674;DHT22;319;48.764;9.174;2023-02-26T00:05:14;3.80;96.50
674;DHT22;319;48.764;9.174;2023-02-26T00:07:41;3.80;96.60
674;DHT22;319;48.764;9.174;2023-02-26T00:10:12;3.70;96.80
674;DHT22;319;48.764;9.174;2023-02-26T00:12:41;3.70;97.00
674;DHT22;319;48.764;9.174;2023-02-26T00:15:10;3.60;96.70
674;DHT22;319;48.764;9.174;2023-02-26T00:17:44;3.50;96.60
674;DHT22;319;48.764;9.174;2023-02-26T00:20:16;3.50;96.60
674;DHT22;319;48.764;9.174;2023-02-26T00:22:49;3.50;96.70
674;DHT22;319;48.764;9.174;2023-02-26T00:25:19;3.50;96.70
674;DHT22;319;48.764;9.174;2023-02-26T00:27:51;3.50;96.60
674;DHT22;319;48.764;9.174;2023-02-26T00:30:22;3.50;96.60
674;DHT22;319;48.764;9.174;2023-02-26T00:33:06;3.50;96.10
674;DHT22;319;48.764;9.174;2023-02-26T00:35:37;3.50;96.30
674;DHT22;319;48.764;9.174;2023-02-26T00:38:05;3.50;96.60
674;DHT22;319;48.764;9.174;2023-02-26T00:40:39;3.40;96.40
674;DHT22;319;48.764;9.174;2023-02-26T00:43:13;3.40;96.50
674;DHT22;319;48.764;9.174;2023-02-26T00:45:44;3.30;96.70
674;DHT22;319;48.764;9.174;2023-02-26T00:48:26;3.30;96.80
674;DHT22;319;48.764;9.174;2023-02-26T00:51:00;3.20;96.60
674;DHT22;319;48.764;9.174;2023-02-26T00:53:32;3.20;96.90
674;DHT22;319;48.764;9.174;2023-02-26T00:55:59;3.20;97.10
674;DHT22;319;48.764;9.174;2023-02-26T00:58:27;3.10;96.90
674;DHT22;319;48.764;9.174;2023-02-26T01:00:54;3.10;97.20
674;DHT22;319;48.764;9.174;2023-02-26T01:03:21;3.10;97.40
674;DHT22;319;48.764;9.174;2023-02-26T01:05:49;3.00;97.30
674;DHT22;319;48.764;9.174;2023-02-26T01:08:20;3.00;97.30
674;DHT22;319;48.764;9.174;2023-02-26T01:10:49;3.00;97.00
674;DHT22;319;48.764;9.174;2023-02-26T01:13:16;2.90;97.10
674;DHT22;319;48.764;9.174;2023-02-26T01:15:47;3.00;97.00
674;DHT22;319;48.764;9.174;2023-02-26T01:18:20;3.10;97.00
674;DHT22;319;48.764;9.174;2023-02-26T01:20:53;3.00;96.80
674;DHT22;319;48.764;9.174;2023-02-26T01:23:24;3.00;96.80
674;DHT22;319;48.764;9.174;2023-02-26T01:25:55;3.00;96.80
674;DHT22;319;48.764;9.174;2023-02-26T01:28:24;3.00;97.00
674;DHT22;319;48.764;9.174;2023-02-26T01:30:57;3.00;96.90
674;DHT22;319;48.764;9.174;2023-02-26T01:33:28;3.00;96.90
674;DHT22;319;48.764;9.174;2023-02-26T01:35:59;3.00;96.80
674;DHT22;319;48.764;9.174;2023-02-26T01:38:31;3.00;96.70
674;DHT22;319;48.764;9.174;2023-02-26T01:41:14;2.90;96.80
674;DHT22;319;48.764;9.174;2023-02-26T01:43:50;2.80;96.60
674;DHT22;319;48.764;9.174;2023-02-26T01:46:25;2.80;96.90
674;DHT22;319;48.764;9.174;2023-02-26T01:48:56;2.80;96.90
674;DHT22;319;48.764;9.174;2023-02-26T01:51:47;2.70;96.70
674;DHT22;319;48.764;9.174;2023-02-26T01:54:16;2.60;96.80
674;DHT22;319;48.764;9.174;2023-02-26T01:56:44;2.60;97.10
674;DHT22;319;48.764;9.174;2023-02-26T01:59:14;2.50;97.00
674;DHT22;319;48.764;9.174;2023-02-26T02:01:43;2.50;97.10
674;DHT22;319;48.764;9.174;2023-02-26T02:04:13;2.40;97.30
674;DHT22;319;48.764;9.174;2023-02-26T02:06:40;2.30;97.10
674;DHT22;319;48.764;9.174;2023-02-26T02:09:09;2.40;97.20
674;DHT22;319;48.764;9.174;2023-02-26T02:11:46;2.50;97.40
674;DHT22;319;48.764;9.174;2023-02-26T02:14:22;2.40;97.50
674;DHT22;319;48.764;9.174;2023-02-26T02:16:56;2.40;97.40
674;DHT22;319;48.764;9.174;2023-02-26T02:19:48;2.40;97.20
674;DHT22;319;48.764;9.174;2023-02-26T02:22:45;2.40;97.30
674;DHT22;319;48.764;9.174;2023-02-26T02:25:34;2.30;97.40
674;DHT22;319;48.764;9.174;2023-02-26T02:28:11;2.30;97.20
674;DHT22;319;48.764;9.174;2023-02-26T02:30:57;2.30;97.40
674;DHT22;319;48.764;9.174;2023-02-26T02:33:30;2.30;97.70
674;DHT22;319;48.764;9.174;2023-02-26T02:36:01;2.30;97.90
674;DHT22;319;48.764;9.174;2023-02-26T02:38:33;2.30;97.50
674;DHT22;319;48.764;9.174;2023-02-26T02:41:06;2.10;97.20
674;DHT22;319;48.764;9.174;2023-02-26T02:43:35;2.10;97.30
674;DHT22;319;48.764;9.174;2023-02-26T02:46:06;2.00;97.50
674;DHT22;319;48.764;9.174;2023-02-26T02:48:37;2.00;97.40
674;DHT22;319;48.764;9.174;2023-02-26T02:51:09;2.00;97.60
674;DHT22;319;48.764;9.174;2023-02-26T02:53:42;2.00;97.80
674;DHT22;319;48.764;9.174;2023-02-26T02:56:12;2.00;97.70
674;DHT22;319;48.764;9.174;2023-02-26T02:58:43;2.00;97.50
674;DHT22;319;48.764;9.174;2023-02-26T03:01:17;2.10;97.70
674;DHT22;319;48.764;9.174;2023-02-26T03:03:49;2.10;97.70
674;DHT22;319;48.764;9.174;2023-02-26T03:06:17;2.00;97.50
674;DHT22;319;48.764;9.174;2023-02-26T03:08:45;1.90;97.60
674;DHT22;319;48.764;9.174;2023-02-26T03:11:14;1.90;98.00
674;DHT22;319;48.764;9.174;2023-02-26T03:13:41;2.00;97.90
674;DHT22;319;48.764;9.174;2023-02-26T03:16:30;2.00;97.50
674;DHT22;319;48.764;9.174;2023-02-26T03:19:04;2.00;97.50
674;DHT22;319;48.764;9.174;2023-02-26T03:21:38;2.00;97.70
674;DHT22;319;48.764;9.174;2023-02-26T03:24:12;1.90;97.60
674;DHT22;319;48.764;9.174;2023-02-26T03:26:42;1.80;97.50
674;DHT22;319;48.764;9.174;2023-02-26T03:29:15;1.90;97.90
674;DHT22;319;48.764;9.174;2023-02-26T03:31:51;1.80;97.80
674;DHT22;319;48.764;9.174;2023-02-26T03:34:21;1.90;98.10
674;DHT22;319;48.764;9.174;2023-02-26T03:36:53;1.90;98.10
674;DHT22;319;48.764;9.174;2023-02-26T03:39:27;2.00;98.20
674;DHT22;319;48.764;9.174;2023-02-26T03:41:58;2.00;97.50
674;DHT22;319;48.764;9.174;2023-02-26T03:44:30;2.00;97.40
674;DHT22;319;48.764;9.174;2023-02-26T03:47:02;2.00;97.40
674;DHT22;319;48.764;9.174;2023-02-26T03:49:31;2.10;97.20
674;DHT22;319;48.764;9.174;2023-02-26T03:52:00;2.10;97.40
674;DHT22;319;48.764;9.174;2023-02-26T03:54:30;2.00;97.20
674;DHT22;319;48.764;9.174;2023-02-26T03:56:58;2.00;97.10
674;DHT22;319;48.764;9.174;2023-02-26T03:59:25;2.10;97.10
674;DHT22;319;48.764;9.174;2023-02-26T04:01:57;2.10;97.00
674;DHT22;319;48.764;9.174;2023-02-26T04:04:30;2.00;97.10
674;DHT22;319;48.764;9.174;2023-02-26T04:06:59;2.00;97.20
674;DHT22;319;48.764;9.174;2023-02-26T04:09:26;2.00;97.10
674;DHT22;319;48.764;9.174;2023-02-26T04:11:54;1.90;97.10
674;DHT22;319;48.764;9.174;2023-02-26T04:14:21;1.90;97.40
674;DHT22;319;48.764;9.174;2023-02-26T04:16:48;1.90;97.80
674;DHT22;319;48.764;9.174;2023-02-26T04:19:15;1.90;97.80
674;DHT22;319;48.764;9.174;2023-02-26T04:21:43;1.80;97.60
674;DHT22;319;48.764;9.174;2023-02-26T04:24:10;1.80;97.60
674;DHT22;319;48.764;9.174;2023-02-26T04:26:37;1.80;97.90
674;DHT22;319;48.764;9.174;2023-02-26T04:29:04;1.80;98.00
674;DHT22;319;48.764;9.174;2023-02-26T04:31:30;1.70;97.90
674;DHT22;319;48.764;9.174;2023-02-26T04:33:57;1.70;97.80
674;DHT22;319;48.764;9.174;2023-02-26T04:36:24;1.60;98.00
674;DHT22;319;48.764;9.174;2023-02-26T04:38:52;1.60;98.50
674;DHT22;319;48.764;9.174;2023-02-26T04:41:19;1.60;98.60
674;DHT22;319;48.764;9.174;2023-02-26T04:43:45;1.60;98.50
674;DHT22;319;48.764;9.174;2023-02-26T04:46:12;1.60;98.50
674;DHT22;319;48.764;9.174;2023-02-26T04:48:39;1.50;98.40
674;DHT22;319;48.764;9.174;2023-02-26T04:51:06;1.50;98.50
674;DHT22;319;48.764;9.174;2023-02-26T04:53:32;1.60;98.50
674;DHT22;319;48.764;9.174;2023-02-26T04:56:00;1.40;98.50
674;DHT22;319;48.764;9.174;2023-02-26T04:58:27;1.30;98.40
674;DHT22;319;48.764;9.174;2023-02-26T05:00:54;1.20;98.60
674;DHT22;319;48.764;9.174;2023-02-26T05:03:22;1.20;98.90
674;DHT22;319;48.764;9.174;2023-02-26T05:05:49;1.20;98.90
674;DHT22;319;48.764;9.174;2023-02-26T05:08:15;1.30;99.10
674;DHT22;319;48.764;9.174;2023-02-26T05:10:42;1.30;99.10
674;DHT22;319;48.764;9.174;2023-02-26T05:13:10;1.20;98.90
674;DHT22;319;48.764;9.174;2023-02-26T05:15:37;1.20;99.00
674;DHT22;319;48.764;9.174;2023-02-26T05:18:04;1.20;99.20
674;DHT22;319;48.764;9.174;2023-02-26T05:20:31;1.20;99.20
674;DHT22;319;48.764;9.174;2023-02-26T05:22:57;1.20;99.00
674;DHT22;319;48.764;9.174;2023-02-26T05:25:24;1.10;99.10
674;DHT22;319;48.764;9.174;2023-02-26T05:27:51;1.10;99.30
674;DHT22;319;48.764;9.174;2023-02-26T05:30:19;1.10;99.40
674;DHT22;319;48.764;9.174;2023-02-26T05:32:46;1.00;99.30
674;DHT22;319;48.764;9.174;2023-02-26T05:35:13;0.90;99.30
674;DHT22;319;48.764;9.174;2023-02-26T05:37:39;1.00;99.60
674;DHT22;319;48.764;9.174;2023-02-26T05:40:08;1.00;99.70
674;DHT22;319;48.764;9.174;2023-02-26T05:42:36;1.00;99.50
674;DHT22;319;48.764;9.174;2023-02-26T05:45:04;0.90;99.70
674;DHT22;319;48.764;9.174;2023-02-26T05:47:33;1.00;99.90
674;DHT22;319;48.764;9.174;2023-02-26T05:50:00;1.00;99.90
674;DHT22;319;48.764;9.174;2023-02-26T05:52:27;1.00;99.80
674;DHT22;319;48.764;9.174;2023-02-26T05:54:53;1.10;99.90
674;DHT22;319;48.764;9.174;2023-02-26T05:57:20;1.00;99.90
674;DHT22;319;48.764;9.174;2023-02-26T05:59:47;1.10;99.90
674;DHT22;319;48.764;9.174;2023-02-26T06:02:14;1.10;99.90
674;DHT22;319;48.764;9.174;2023-02-26T06:04:42;1.10;99.90
674;DHT22;319;48.764;9.174;2023-02-26T06:07:09;1.10;99.60
674;DHT22;319;48.764;9.174;2023-02-26T06:09:36;1.10;99.60
674;DHT22;319;48.764;9.174;2023-02-26T06:12:03;1.00;99.50
674;DHT22;319;48.764;9.174;2023-02-26T06:14:31;1.10;99.80
674;DHT22;319;48.764;9.174;2023-02-26T06:16:57;1.00;99.80
674;DHT22;319;48.764;9.174;2023-02-26T06:19:24;1.00;99.60
674;DHT22;319;48.764;9.174;2023-02-26T06:21:53;1.00;99.60
674;DHT22;319;48.764;9.174;2023-02-26T06:24:20;1.00;99.70
674;DHT22;319;48.764;9.174;2023-02-26T06:26:46;1.00;99.80
674;DHT22;319;48.764;9.174;2023-02-26T06:29:13;1.00;99.70
674;DHT22;319;48.764;9.174;2023-02-26T06:31:42;1.00;99.80
674;DHT22;319;48.764;9.174;2023-02-26T06:34:08;0.90;99.80
674;DHT22;319;48.764;9.174;2023-02-26T06:36:35;0.90;99.80
674;DHT22;319;48.764;9.174;2023-02-26T06:39:03;0.90;99.90
674;DHT22;319;48.764;9.174;2023-02-26T06:41:30;1.00;99.90
674;DHT22;319;48.764;9.174;2023-02-26T06:43:57;1.10;99.90
674;DHT22;319;48.764;9.174;2023-02-26T06:46:23;1.20;99.80
674;DHT22;319;48.764;9.174;2023-02-26T06:48:50;1.10;99.60
674;DHT22;319;48.764;9.174;2023-02-26T06:51:17;1.20;99.60
674;DHT22;319;48.764;9.174;2023-02-26T06:53:44;1.20;99.50
674;DHT22;319;48.764;9.174;2023-02-26T06:56:12;1.30;99.70
674;DHT22;319;48.764;9.174;2023-02-26T06:58:39;1.40;99.20
674;DHT22;319;48.764;9.174;2023-02-26T07:01:06;1.30;99.00
674;DHT22;319;48.764;9.174;2023-02-26T07:03:33;1.40;99.20
674;DHT22;319;48.764;9.174;2023-02-26T07:05:59;1.30;99.20
674;DHT22;319;48.764;9.174;2023-02-26T07:08:26;1.40;99.10
674;DHT22;319;48.764;9.174;2023-02-26T07:10:53;1.40;99.10
674;DHT22;319;48.764;9.174;2023-02-26T07:13:21;1.50;99.20
674;DHT22;319;48.764;9.174;2023-02-26T07:15:48;1.50;98.90
674;DHT22;319;48.764;9.174;2023-02-26T07:18:15;1.60;99.10
674;DHT22;319;48.764;9.174;2023-02-26T07:20:43;1.70;98.90
674;DHT22;319;48.764;9.174;2023-02-26T07:23:10;1.70;98.70
674;DHT22;319;48.764;9.174;2023-02-26T07:25:37;1.70;98.40
674;DHT22;319;48.764;9.174;2023-02-26T07:28:04;1.80;98.40
674;DHT22;319;48.764;9.174;2023-02-26T07:30:33;1.90;98.40
674;DHT22;319;48.764;9.174;2023-02-26T07:32:59;2.00;98.70
674;DHT22;319;48.764;9.174;2023-02-26T07:35:26;2.10;98.60
674;DHT22;319;48.764;9.174;2023-02-26T07:37:53;2.20;98.10
674;DHT22;319;48.764;9.174;2023-02-26T07:40:20;2.30;97.80
674;DHT22;319;48.764;9.174;2023-02-26T07:42:46;2.50;97.50
674;DHT22;319;48.764;9.174;2023-02-26T07:45:13;2.50;97.10
674;DHT22;319;48.764;9.174;2023-02-26T07:47:44;2.60;96.90
674;DHT22;319;48.764;9.174;2023-02-26T07:50:11;2.60;96.80
674;DHT22;319;48.764;9.174;2023-02-26T07:52:38;2.70;96.80
674;DHT22;319;48.764;9.174;2023-02-26T07:55:05;2.80;96.50
674;DHT22;319;48.764;9.174;2023-02-26T07:57:32;2.80;96.40
674;DHT22;319;48.764;9.174;2023-02-26T07:59:59;2.80;96.40
674;DHT22;319;48.764;9.174;2023-02-26T08:02:26;2.80;96.40
674;DHT22;319;48.764;9.174;2023-02-26T08:04:54;2.60;96.40
674;DHT22;319;48.764;9.174;2023-02-26T08:07:21;2.70;97.00
674;DHT22;319;48.764;9.174;2023-02-26T08:09:47;2.60;97.10
674;DHT22;319;48.764;9.174;2023-02-26T08:12:14;2.60;97.80
674;DHT22;319;48.764;9.174;2023-02-26T08:14:42;2.50;98.40
674;DHT22;319;48.764;9.174;2023-02-26T08:17:10;2.40;98.60
674;DHT22;319;48.764;9.174;2023-02-26T08:19:40;2.50;99.20
674;DHT22;319;48.764;9.174;2023-02-26T08:22:26;2.70;98.60
674;DHT22;319;48.764;9.174;2023-02-26T08:24:57;2.70;98.10
674;DHT22;319;48.764;9.174;2023-02-26T08:27:36;2.90;97.60
674;DHT22;319;48.764;9.174;2023-02-26T08:30:03;3.00;97.20
674;DHT22;319;48.764;9.174;2023-02-26T08:32:32;2.80;97.10
674;DHT22;319;48.764;9.174;2023-02-26T08:34:59;2.90;97.30
674;DHT22;319;48.764;9.174;2023-02-26T08:37:35;3.00;97.40
674;DHT22;319;48.764;9.174;2023-02-26T08:40:11;2.80;96.90
674;DHT22;319;48.764;9.174;2023-02-26T08:42:39;2.90;96.90
674;DHT22;319;48.764;9.174;2023-02-26T08:45:07;2.80;97.10
674;DHT22;319;48.764;9.174;2023-02-26T08:47:34;2.90;97.00
674;DHT22;319;48.764;9.174;2023-02-26T08:50:01;2.90;97.00
674;DHT22;319;48.764;9.174;2023-02-26T08:52:29;2.80;97.30
674;DHT22;319;48.764;9.174;2023-02-26T08:54:56;2.70;97.30
674;DHT22;319;48.764;9.174;2023-02-26T09:00:55;2.50;97.20
674;DHT22;319;48.764;9.174;2023-02-26T09:03:25;2.50;97.60
674;DHT22;319;48.764;9.174;2023-02-26T09:05:52;2.80;97.90
674;DHT22;319;48.764;9.174;2023-02-26T09:08:20;2.30;97.20
674;DHT22;319;48.764;9.174;2023-02-26T09:10:47;2.20;97.70
674;DHT22;319;48.764;9.174;2023-02-26T09:13:14;2.20;97.70
674;DHT22;319;48.764;9.174;2023-02-26T09:15:41;2.20;98.00
674;DHT22;319;48.764;9.174;2023-02-26T09:18:07;2.10;98.10
674;DHT22;319;48.764;9.174;2023-02-26T09:20:40;2.10;98.30
674;DHT22;319;48.764;9.174;2023-02-26T09:23:07;2.30;98.40
674;DHT22;319;48.764;9.174;2023-02-26T09:25:35;2.40;98.20
674;DHT22;319;48.764;9.174;2023-02-26T09:28:02;2.50;98.00
674;DHT22;319;48.764;9.174;2023-02-26T09:30:29;2.50;97.70
674;DHT22;319;48.764;9.174;2023-02-26T09:32:56;2.50;97.90
674;DHT22;319;48.764;9.174;2023-02-26T09:35:22;2.40;98.00
674;DHT22;319;48.764;9.174;2023-02-26T09:37:49;2.40;98.40
674;DHT22;319;48.764;9.174;2023-02-26T09:40:23;2.40;98.60
674;DHT22;319;48.764;9.174;2023-02-26T09:43:32;2.40;98.30
674;DHT22;319;48.764;9.174;2023-02-26T09:49:46;2.40;98.40
674;DHT22;319;48.764;9.174;2023-02-26T09:52:24;2.30;98.00
674;DHT22;319;48.764;9.174;2023-02-26T09:54:56;2.20;98.00
674;DHT22;319;48.764;9.174;2023-02-26T09:57:41;2.20;98.20
674;DHT22;319;48.764;9.174;2023-02-26T10:00:20;2.00;99.10
674;DHT22;319;48.764;9.174;2023-02-26T10:02:54;2.10;98.60
674;DHT22;319;48.764;9.174;2023-02-26T10:05:31;1.60;98.50
674;DHT22;319;48.764;9.174;2023-02-26T10:08:10;2.00;99.00
674;DHT22;319;48.764;9.174;2023-02-26T10:10:48;2.10;99.60
674;DHT22;319;48.764;9.174;2023-02-26T10:13:24;2.30;99.80
674;DHT22;319;48.764;9.174;2023-02-26T10:16:04;2.30;99.80
674;DHT22;319;48.764;9.174;2023-02-26T10:18:39;3.70;99.90
674;DHT22;319;48.764;9.174;2023-02-26T10:21:56;3.00;99.90
674;DHT22;319;48.764;9.174;2023-02-26T10:24:30;2.60;99.20
674;DHT22;319;48.764;9.174;2023-02-26T10:27:04;2.70;99.20
674;DHT22;319;48.764;9.174;2023-02-26T10:29:37;2.80;99.10
674;DHT22;319;48.764;9.174;2023-02-26T10:32:18;3.40;99.10
674;DHT22;319;48.764;9.174;2023-02-26T10:34:51;2.70;98.20
674;DHT22;319;48.764;9.174;2023-02-26T10:37:22;2.70;98.60
674;DHT22;319;48.764;9.174;2023-02-26T10:39:54;2.80;98.70
674;DHT22;319;48.764;9.174;2023-02-26T10:42:26;2.80;98.40
674;DHT22;319;48.764;9.174;2023-02-26T10:45:08;2.80;97.90
674;DHT22;319;48.764;9.174;2023-02-26T10:47:42;2.80;97.70
674;DHT22;319;48.764;9.174;2023-02-26T10:50:14;2.80;97.50
674;DHT22;319;48.764;9.174;2023-02-26T10:52:43;2.80;97.60
674;DHT22;319;48.764;9.174;2023-02-26T10:55:23;2.80;97.50
674;DHT22;319;48.764;9.174;2023-02-26T10:57:55;2.80;97.60
674;DHT22;319;48.764;9.174;2023-02-26T11:00:24;2.80;97.40
674;DHT22;319;48.764;9.174;2023-02-26T11:02:54;2.70;97.50
674;DHT22;319;48.764;9.174;2023-02-26T11:05:23;2.70;97.70
674;DHT22;319;48.764;9.174;2023-02-26T11:07:54;2.90;97.50
674;DHT22;319;48.764;9.174;2023-02-26T11:10:23;2.90;97.30
674;DHT22;319;48.764;9.174;2023-02-26T11:12:51;3.10;97.20
674;DHT22;319;48.764;9.174;2023-02-26T11:15:22;3.00;96.70
674;DHT22;319;48.764;9.174;2023-02-26T11:17:56;3.10;96.70
674;DHT22;319;48.764;9.174;2023-02-26T11:20:29;3.10;96.70
674;DHT22;319;48.764;9.174;2023-02-26T11:22:57;3.30;96.90
674;DHT22;319;48.764;9.174;2023-02-26T11:25:28;3.30;96.30
674;DHT22;319;48.764;9.174;2023-02-26T11:28:00;3.20;96.10
674;DHT22;319;48.764;9.174;2023-02-26T11:30:30;3.10;96.60
674;DHT22;319;48.764;9.174;2023-02-26T11:33:05;3.30;96.80
674;DHT22;319;48.764;9.174;2023-02-26T11:35:32;3.30;96.20
674;DHT22;319;48.764;9.174;2023-02-26T11:38:00;3.40;96.20
674;DHT22;319;48.764;9.174;2023-02-26T11:40:34;3.30;96.10
674;DHT22;319;48.764;9.174;2023-02-26T11:43:04;3.20;95.60
674;DHT22;319;48.764;9.174;2023-02-26T11:45:38;3.10;95.50
674;DHT22;319;48.764;9.174;2023-02-26T11:55:31;3.10;95.40
674;DHT22;319;48.764;9.174;2023-02-26T11:57:58;3.20;95.40
674;DHT22;319;48.764;9.174;2023-02-26T12:00:29;3.10;95.20
674;DHT22;319;48.764;9.174;2023-02-26T12:03:00;3.10;95.50
674;DHT22;319;48.764;9.174;2023-02-26T12:05:29;3.10;95.60
674;DHT22;319;48.764;9.174;2023-02-26T12:07:56;3.00;95.80
674;DHT22;319;48.764;9.174;2023-02-26T12:10:37;3.10;96.30
674;DHT22;319;48.764;9.174;2023-02-26T12:13:13;3.10;96.70
674;DHT22;319;48.764;9.174;2023-02-26T12:15:49;3.10;97.10
674;DHT22;319;48.764;9.174;2023-02-26T12:18:29;3.30;97.40
674;DHT22;319;48.764;9.174;2023-02-26T12:21:08;3.50;97.20
674;DHT22;319;48.764;9.174;2023-02-26T12:23:56;3.60;97.00
674;DHT22;319;48.764;9.174;2023-02-26T12:26:29;3.70;96.90
674;DHT22;319;48.764;9.174;2023-02-26T12:29:31;3.70;95.80
674;DHT22;319;48.764;9.174;2023-02-26T12:38:10;3.60;96.30
674;DHT22;319;48.764;9.174;2023-02-26T12:40:54;3.50;96.40
674;DHT22;319;48.764;9.174;2023-02-26T12:43:34;3.40;96.20
674;DHT22;319;48.764;9.174;2023-02-26T12:46:11;3.40;96.30
674;DHT22;319;48.764;9.174;2023-02-26T12:48:55;3.50;96.20
674;DHT22;319;48.764;9.174;2023-02-26T12:51:36;3.50;96.20
674;DHT22;319;48.764;9.174;2023-02-26T12:54:20;3.50;96.00
674;DHT22;319;48.764;9.174;2023-02-26T12:57:16;3.60;95.80
674;DHT22;319;48.764;9.174;2023-02-26T13:00:11;3.70;95.50
674;DHT22;319;48.764;9.174;2023-02-26T13:03:20;3.60;95.50
674;DHT22;319;48.764;9.174;2023-02-26T13:08:45;4.00;95.50
674;DHT22;319;48.764;9.174;2023-02-26T13:11:24;4.20;95.30
674;DHT22;319;48.764;9.174;2023-02-26T13:14:04;4.20;94.90
674;DHT22;319;48.764;9.174;2023-02-26T13:16:43;4.20;94.70
674;DHT22;319;48.764;9.174;2023-02-26T13:19:22;4.10;93.70
674;DHT22;319;48.764;9.174;2023-02-26T13:21:56;4.00;93.90
674;DHT22;319;48.764;9.174;2023-02-26T13:24:27;4.00;94.00
674;DHT22;319;48.764;9.174;2023-02-26T13:26:58;4.00;93.60
674;DHT22;319;48.764;9.174;2023-02-26T13:29:28;3.90;93.70
674;DHT22;319;48.764;9.174;2023-02-26T13:32:00;3.80;93.60
674;DHT22;319;48.764;9.174;2023-02-26T13:34:35;3.80;93.70
674;DHT22;319;48.764;9.174;2023-02-26T13:37:04;3.90;93.70
674;DHT22;319;48.764;9.174;2023-02-26T13:39:40;4.00;94.00
674;DHT22;319;48.764;9.174;2023-02-26T13:42:19;4.10;93.40
674;DHT22;319;48.764;9.174;2023-02-26T13:44:57;4.10;92.70
674;DHT22;319;48.764;9.174;2023-02-26T13:47:51;4.10;92.10
674;DHT22;319;48.764;9.174;2023-02-26T13:50:33;4.00;91.90
674;DHT22;319;48.764;9.174;2023-02-26T13:53:03;3.90;91.90
674;DHT22;319;48.764;9.174;2023-02-26T13:55:45;4.00;92.20
674;DHT22;319;48.764;9.174;2023-02-26T13:58:29;4.20;92.00
674;DHT22;319;48.764;9.174;2023-02-26T14:01:09;4.20;91.80
674;DHT22;319;48.764;9.174;2023-02-26T14:03:42;4.20;91.70
674;DHT22;319;48.764;9.174;2023-02-26T14:06:38;4.30;91.60
674;DHT22;319;48.764;9.174;2023-02-26T14:09:41;4.40;91.30
674;DHT22;319;48.764;9.174;2023-02-26T14:12:23;4.50;90.50
674;DHT22;319;48.764;9.174;2023-02-26T14:18:05;4.50;90.50
674;DHT22;319;48.764;9.174;2023-02-26T14:20:44;4.40;90.50
674;DHT22;319;48.764;9.174;2023-02-26T14:23:32;4.40;90.90
674;DHT22;319;48.764;9.174;2023-02-26T14:26:11;4.40;90.80
674;DHT22;319;48.764;9.174;2023-02-26T14:28:43;4.40;90.80
674;DHT22;319;48.764;9.174;2023-02-26T14:31:16;4.50;90.80
674;DHT22;319;48.764;9.174;2023-02-26T14:33:46;4.70;90.70
674;DHT22;319;48.764;9.174;2023-02-26T14:36:19;4.90;90.50
674;DHT22;319;48.764;9.174;2023-02-26T14:38:47;4.90;90.10
674;DHT22;319;48.764;9.174;2023-02-26T14:41:25;4.90;89.60
674;DHT22;319;48.764;9.174;2023-02-26T14:43:59;4.80;89.60
674;DHT22;319;48.764;9.174;2023-02-26T14:46:27;4.60;89.20
674;DHT22;319;48.764;9.174;2023-02-26T14:48:54;4.50;90.10
674;DHT22;319;48.764;9.174;2023-02-26T14:51:31;4.60;90.30
674;DHT22;319;48.764;9.174;2023-02-26T14:54:16;4.60;90.10
674;DHT22;319;48.764;9.174;2023-02-26T14:57:01;4.60;89.50
674;DHT22;319;48.764;9.174;2023-02-26T14:59:46;4.60;88.50
674;DHT22;319;48.764;9.174;2023-02-26T15:02:25;4.70;88.00
674;DHT22;319;48.764;9.174;2023-02-26T15:08:28;4.60;87.10
674;DHT22;319;48.764;9.174;2023-02-26T15:11:18;4.60;87.30
674;DHT22;319;48.764;9.174;2023-02-26T15:17:05;4.50;87.60
674;DHT22;319;48.764;9.174;2023-02-26T15:19:53;4.50;87.80
674;DHT22;319;48.764;9.174;2023-02-26T15:22:37;4.40;87.70
674;DHT22;319;48.764;9.174;2023-02-26T15:25:24;4.30;87.80
674;DHT22;319;48.764;9.174;2023-02-26T15:27:53;4.30;87.30
674;DHT22;319;48.764;9.174;2023-02-26T15:30:22;4.20;87.50
674;DHT22;319;48.764;9.174;2023-02-26T15:32:55;4.30;87.70
674;DHT22;319;48.764;9.174;2023-02-26T15:35:22;4.20;87.50
674;DHT22;319;48.764;9.174;2023-02-26T15:37:52;4.20;88.30
674;DHT22;319;48.764;9.174;2023-02-26T15:40:19;4.20;88.60
674;DHT22;319;48.764;9.174;2023-02-26T15:42:49;4.30;88.80
674;DHT22;319;48.764;9.174;2023-02-26T15:45:23;4.20;89.30
674;DHT22;319;48.764;9.174;2023-02-26T15:47:54;4.20;89.20
674;DHT22;319;48.764;9.174;2023-02-26T15:50:23;4.10;89.30
674;DHT22;319;48.764;9.174;2023-02-26T15:52:55;4.20;89.90
674;DHT22;319;48.764;9.174;2023-02-26T15:55:24;4.30;89.90
674;DHT22;319;48.764;9.174;2023-02-26T15:57:52;4.40;88.70
674;DHT22;319;48.764;9.174;2023-02-26T16:00:22;4.50;88.30
674;DHT22;319;48.764;9.174;2023-02-26T16:02:51;4.40;87.00
674;DHT22;319;48.764;9.174;2023-02-26T16:05:19;4.30;86.90
674;DHT22;319;48.764;9.174;2023-02-26T16:07:46;4.20;85.90
674;DHT22;319;48.764;9.174;2023-02-26T16:10:16;4.00;85.40
674;DHT22;319;48.764;9.174;2023-02-26T16:12:43;4.00;85.10
674;DHT22;319;48.764;9.174;2023-02-26T16:15:16;3.90;84.70
674;DHT22;319;48.764;9.174;2023-02-26T16:17:48;3.90;84.20
674;DHT22;319;48.764;9.174;2023-02-26T16:20:17;3.90;83.90
674;DHT22;319;48.764;9.174;2023-02-26T16:22:47;3.80;83.50
674;DHT22;319;48.764;9.174;2023-02-26T16:25:19;3.80;83.00
674;DHT22;319;48.764;9.174;2023-02-26T16:27:50;3.80;83.40
674;DHT22;319;48.764;9.174;2023-02-26T16:30:19;3.80;83.00
674;DHT22;319;48.764;9.174;2023-02-26T16:32:53;3.70;83.40
674;DHT22;319;48.764;9.174;2023-02-26T16:35:21;3.70;83.60
674;DHT22;319;48.764;9.174;2023-02-26T16:37:51;3.70;83.90
674;DHT22;319;48.764;9.174;2023-02-26T16:40:25;3.70;84.10
674;DHT22;319;48.764;9.174;2023-02-26T16:42:57;3.70;84.30
674;DHT22;319;48.764;9.174;2023-02-26T16:45:43;3.70;85.10
674;DHT22;319;48.764;9.174;2023-02-26T16:48:18;3.80;84.60
674;DHT22;319;48.764;9.174;2023-02-26T16:50:52;3.80;83.70
674;DHT22;319;48.764;9.174;2023-02-26T16:53:23;3.60;82.70
674;DHT22;319;48.764;9.174;2023-02-26T16:55:55;3.50;83.30
674;DHT22;319;48.764;9.174;2023-02-26T16:58:24;3.60;82.90
674;DHT22;319;48.764;9.174;2023-02-26T17:00:53;3.60;82.90
674;DHT22;319;48.764;9.174;2023-02-26T17:03:25;3.60;82.00
674;DHT22;319;48.764;9.174;2023-02-26T17:05:56;3.60;82.20
674;DHT22;319;48.764;9.174;2023-02-26T17:08:26;3.60;82.50
674;DHT22;319;48.764;9.174;2023-02-26T17:10:58;3.60;82.70
674;DHT22;319;48.764;9.174;2023-02-26T17:13:27;3.60;82.20
674;DHT22;319;48.764;9.174;2023-02-26T17:15:57;3.60;82.20
674;DHT22;319;48.764;9.174;2023-02-26T17:18:26;3.60;82.30
674;DHT22;319;48.764;9.174;2023-02-26T17:20:53;3.70;82.70
674;DHT22;319;48.764;9.174;2023-02-26T17:23:20;3.60;82.40
674;DHT22;319;48.764;9.174;2023-02-26T17:25:51;3.60;82.00
674;DHT22;319;48.764;9.174;2023-02-26T17:28:22;3.60;82.10
674;DHT22;319;48.764;9.174;2023-02-26T17:30:50;3.50;81.70
674;DHT22;319;48.764;9.174;2023-02-26T17:33:17;3.50;82.30
674;DHT22;319;48.764;9.174;2023-02-26T17:35:46;3.40;82.40
674;DHT22;319;48.764;9.174;2023-02-26T17:38:13;3.40;82.70
674;DHT22;319;48.764;9.174;2023-02-26T17:40:42;3.40;83.00
674;DHT22;319;48.764;9.174;2023-02-26T17:43:10;3.40;83.20
674;DHT22;319;48.764;9.174;2023-02-26T17:45:38;3.30;83.10
674;DHT22;319;48.764;9.174;2023-02-26T17:48:06;3.30;83.80
674;DHT22;319;48.764;9.174;2023-02-26T17:50:39;3.30;84.00
674;DHT22;319;48.764;9.174;2023-02-26T17:53:07;3.40;84.30
674;DHT22;319;48.764;9.174;2023-02-26T17:55:34;3.40;84.80